Usu, China
Current Conditions -  °F | °C
As of 6:30 PM on Friday 24 Oct 2014 (Local Time) from ZWWW Reporting Station
Clear Clear  
Wind Chill: 63°   Ceiling: Unl
Heat Index: 63°   Visibility: 6mi
Dew Point: 41°   Wind: 7mph
Humidity: 45%   Direction: 350°N
Pressure: 30.09"   Gusts: NA
Location:  44.45°N, 84.62°E
Report Text: ZWWW 241030Z 35003MPS 320V020 CAVOK 17/05 Q1019 NOSIG
Loading
Personal Weather Stations






























Interactive Weather Map
Tropical Storm Tracking
New forecast layout! Learn more

10-Day Weather Forecast

Advertisements
Track Severe Weather on mobile